sensor_id;sensor_type;location;lat;lon;timestamp;temperature;humidity
3001;DHT22;1510;51.072;6.678;2023-07-13T00:00:04;14.10;64.20
3001;DHT22;1510;51.072;6.678;2023-07-13T00:02:34;14.10;64.70
3001;DHT22;1510;51.072;6.678;2023-07-13T00:05:01;14.10;64.70
3001;DHT22;1510;51.072;6.678;2023-07-13T00:07:28;14.10;64.70
3001;DHT22;1510;51.072;6.678;2023-07-13T00:09:56;14.10;64.70
3001;DHT22;1510;51.072;6.678;2023-07-13T00:12:26;14.10;65.50
3001;DHT22;1510;51.072;6.678;2023-07-13T00:14:56;14.10;64.60
3001;DHT22;1510;51.072;6.678;2023-07-13T00:17:24;14.10;64.70
3001;DHT22;1510;51.072;6.678;2023-07-13T00:19:51;14.10;64.60
3001;DHT22;1510;51.072;6.678;2023-07-13T00:22:18;14.20;64.40
3001;DHT22;1510;51.072;6.678;2023-07-13T00:24:45;14.20;61.80
3001;DHT22;1510;51.072;6.678;2023-07-13T00:27:12;14.30;56.90
3001;DHT22;1510;51.072;6.678;2023-07-13T00:29:39;14.30;61.20
3001;DHT22;1510;51.072;6.678;2023-07-13T00:32:08;14.30;60.80
3001;DHT22;1510;51.072;6.678;2023-07-13T00:34:36;14.20;62.60
3001;DHT22;1510;51.072;6.678;2023-07-13T00:37:04;14.30;63.50
3001;DHT22;1510;51.072;6.678;2023-07-13T00:39:33;14.30;63.80
3001;DHT22;1510;51.072;6.678;2023-07-13T00:42:00;14.30;64.80
3001;DHT22;1510;51.072;6.678;2023-07-13T00:44:27;14.20;64.80
3001;DHT22;1510;51.072;6.678;2023-07-13T00:46:54;14.30;62.60
3001;DHT22;1510;51.072;6.678;2023-07-13T00:49:29;14.20;64.80
3001;DHT22;1510;51.072;6.678;2023-07-13T00:51:58;14.20;64.80
3001;DHT22;1510;51.072;6.678;2023-07-13T00:54:30;14.20;64.80
3001;DHT22;1510;51.072;6.678;2023-07-13T00:57:01;14.30;64.90
3001;DHT22;1510;51.072;6.678;2023-07-13T00:59:28;14.20;64.80
3001;DHT22;1510;51.072;6.678;2023-07-13T01:01:56;14.20;64.80
3001;DHT22;1510;51.072;6.678;2023-07-13T01:04:25;14.10;64.70
3001;DHT22;1510;51.072;6.678;2023-07-13T01:06:53;14.10;64.70
3001;DHT22;1510;51.072;6.678;2023-07-13T01:09:20;14.10;64.70
3001;DHT22;1510;51.072;6.678;2023-07-13T01:11:47;14.10;64.70
3001;DHT22;1510;51.072;6.678;2023-07-13T01:14:14;14.10;64.70
3001;DHT22;1510;51.072;6.678;2023-07-13T01:16:43;14.10;64.70
3001;DHT22;1510;51.072;6.678;2023-07-13T01:19:25;14.10;64.70
3001;DHT22;1510;51.072;6.678;2023-07-13T01:22:03;14.10;64.80
3001;DHT22;1510;51.072;6.678;2023-07-13T01:24:34;14.00;64.60
3001;DHT22;1510;51.072;6.678;2023-07-13T01:27:02;13.90;67.30
3001;DHT22;1510;51.072;6.678;2023-07-13T01:29:30;13.90;69.30
3001;DHT22;1510;51.072;6.678;2023-07-13T01:31:57;13.80;69.30
3001;DHT22;1510;51.072;6.678;2023-07-13T01:34:25;13.80;72.50
3001;DHT22;1510;51.072;6.678;2023-07-13T01:36:52;13.80;72.50
3001;DHT22;1510;51.072;6.678;2023-07-13T01:39:21;13.70;72.40
3001;DHT22;1510;51.072;6.678;2023-07-13T01:41:48;13.70;72.40
3001;DHT22;1510;51.072;6.678;2023-07-13T01:44:15;13.70;72.50
3001;DHT22;1510;51.072;6.678;2023-07-13T01:46:42;13.70;72.50
3001;DHT22;1510;51.072;6.678;2023-07-13T01:49:08;13.70;72.40
3001;DHT22;1510;51.072;6.678;2023-07-13T01:51:35;13.70;71.40
3001;DHT22;1510;51.072;6.678;2023-07-13T01:54:02;13.80;70.50
3001;DHT22;1510;51.072;6.678;2023-07-13T01:56:30;13.80;72.50
3001;DHT22;1510;51.072;6.678;2023-07-13T01:58:57;13.80;72.50
3001;DHT22;1510;51.072;6.678;2023-07-13T02:01:24;13.80;72.50
3001;DHT22;1510;51.072;6.678;2023-07-13T02:03:51;13.80;72.50
3001;DHT22;1510;51.072;6.678;2023-07-13T02:06:18;13.80;72.50
3001;DHT22;1510;51.072;6.678;2023-07-13T02:08:45;13.80;80.30
3001;DHT22;1510;51.072;6.678;2023-07-13T02:11:12;13.80;80.40
3001;DHT22;1510;51.072;6.678;2023-07-13T02:13:40;13.80;80.40
3001;DHT22;1510;51.072;6.678;2023-07-13T02:16:07;13.80;80.40
3001;DHT22;1510;51.072;6.678;2023-07-13T02:18:34;13.70;80.30
3001;DHT22;1510;51.072;6.678;2023-07-13T02:21:01;13.70;80.30
3001;DHT22;1510;51.072;6.678;2023-07-13T02:23:28;13.70;80.30
3001;DHT22;1510;51.072;6.678;2023-07-13T02:25:55;13.60;80.20
3001;DHT22;1510;51.072;6.678;2023-07-13T02:28:22;13.60;81.50
3001;DHT22;1510;51.072;6.678;2023-07-13T02:30:51;13.50;80.10
3001;DHT22;1510;51.072;6.678;2023-07-13T02:33:18;13.50;87.80
3001;DHT22;1510;51.072;6.678;2023-07-13T02:35:44;13.50;87.60
3001;DHT22;1510;51.072;6.678;2023-07-13T02:38:11;13.50;87.80
3001;DHT22;1510;51.072;6.678;2023-07-13T02:40:38;13.50;84.10
3001;DHT22;1510;51.072;6.678;2023-07-13T02:43:05;13.50;84.00
3001;DHT22;1510;51.072;6.678;2023-07-13T02:45:32;13.50;82.20
3001;DHT22;1510;51.072;6.678;2023-07-13T02:48:00;13.40;83.90
3001;DHT22;1510;51.072;6.678;2023-07-13T02:50:27;13.40;83.50
3001;DHT22;1510;51.072;6.678;2023-07-13T02:52:54;13.40;80.10
3001;DHT22;1510;51.072;6.678;2023-07-13T02:55:21;13.40;85.10
3001;DHT22;1510;51.072;6.678;2023-07-13T02:57:48;13.40;84.60
3001;DHT22;1510;51.072;6.678;2023-07-13T03:00:16;13.30;86.10
3001;DHT22;1510;51.072;6.678;2023-07-13T03:02:43;13.40;87.30
3001;DHT22;1510;51.072;6.678;2023-07-13T03:05:12;13.30;87.70
3001;DHT22;1510;51.072;6.678;2023-07-13T03:07:40;13.30;83.80
3001;DHT22;1510;51.072;6.678;2023-07-13T03:10:08;13.30;83.90
3001;DHT22;1510;51.072;6.678;2023-07-13T03:12:35;13.30;85.10
3001;DHT22;1510;51.072;6.678;2023-07-13T03:15:02;13.30;85.90
3001;DHT22;1510;51.072;6.678;2023-07-13T03:17:29;13.30;87.50
3001;DHT22;1510;51.072;6.678;2023-07-13T03:19:56;13.30;84.90
3001;DHT22;1510;51.072;6.678;2023-07-13T03:22:24;13.20;86.70
3001;DHT22;1510;51.072;6.678;2023-07-13T03:24:51;13.20;87.50
3001;DHT22;1510;51.072;6.678;2023-07-13T03:27:18;13.20;84.60
3001;DHT22;1510;51.072;6.678;2023-07-13T03:29:45;13.10;83.70
3001;DHT22;1510;51.072;6.678;2023-07-13T03:32:12;13.10;87.50
3001;DHT22;1510;51.072;6.678;2023-07-13T03:34:39;13.20;87.50
3001;DHT22;1510;51.072;6.678;2023-07-13T03:37:05;13.20;85.00
3001;DHT22;1510;51.072;6.678;2023-07-13T03:39:34;13.20;85.20
3001;DHT22;1510;51.072;6.678;2023-07-13T03:42:00;13.20;85.30
3001;DHT22;1510;51.072;6.678;2023-07-13T03:44:27;13.20;83.20
3001;DHT22;1510;51.072;6.678;2023-07-13T03:46:54;13.30;80.00
3001;DHT22;1510;51.072;6.678;2023-07-13T03:49:21;13.30;80.00
3001;DHT22;1510;51.072;6.678;2023-07-13T03:51:48;13.40;80.00
3001;DHT22;1510;51.072;6.678;2023-07-13T03:54:15;13.50;80.90
3001;DHT22;1510;51.072;6.678;2023-07-13T03:56:43;13.50;80.10
3001;DHT22;1510;51.072;6.678;2023-07-13T03:59:10;13.60;80.20
3001;DHT22;1510;51.072;6.678;2023-07-13T04:01:37;13.60;84.00
3001;DHT22;1510;51.072;6.678;2023-07-13T04:04:04;13.60;80.20
3001;DHT22;1510;51.072;6.678;2023-07-13T04:06:32;13.60;82.80
3001;DHT22;1510;51.072;6.678;2023-07-13T04:09:00;13.70;82.20
3001;DHT22;1510;51.072;6.678;2023-07-13T04:11:29;13.70;85.30
3001;DHT22;1510;51.072;6.678;2023-07-13T04:13:58;13.80;83.50
3001;DHT22;1510;51.072;6.678;2023-07-13T04:16:25;13.90;80.50
3001;DHT22;1510;51.072;6.678;2023-07-13T04:18:53;13.90;80.50
3001;DHT22;1510;51.072;6.678;2023-07-13T04:21:24;14.00;80.50
3001;DHT22;1510;51.072;6.678;2023-07-13T04:23:51;14.00;80.60
3001;DHT22;1510;51.072;6.678;2023-07-13T04:26:18;14.10;80.70
3001;DHT22;1510;51.072;6.678;2023-07-13T04:28:46;14.20;80.80
3001;DHT22;1510;51.072;6.678;2023-07-13T04:31:15;14.20;80.80
3001;DHT22;1510;51.072;6.678;2023-07-13T04:33:42;14.20;80.70
3001;DHT22;1510;51.072;6.678;2023-07-13T04:36:09;14.20;80.80
3001;DHT22;1510;51.072;6.678;2023-07-13T04:38:36;14.30;80.90
3001;DHT22;1510;51.072;6.678;2023-07-13T04:41:05;14.40;81.00
3001;DHT22;1510;51.072;6.678;2023-07-13T04:43:33;14.40;81.00
3001;DHT22;1510;51.072;6.678;2023-07-13T04:46:03;14.50;81.10
3001;DHT22;1510;51.072;6.678;2023-07-13T04:48:32;14.50;81.10
3001;DHT22;1510;51.072;6.678;2023-07-13T04:50:59;14.60;81.10
3001;DHT22;1510;51.072;6.678;2023-07-13T04:53:28;14.60;81.10
3001;DHT22;1510;51.072;6.678;2023-07-13T04:55:55;14.70;81.20
3001;DHT22;1510;51.072;6.678;2023-07-13T04:58:23;14.80;81.20
3001;DHT22;1510;51.072;6.678;2023-07-13T05:00:50;14.80;81.30
3001;DHT22;1510;51.072;6.678;2023-07-13T05:03:17;14.90;77.10
3001;DHT22;1510;51.072;6.678;2023-07-13T05:05:55;15.00;73.70
3001;DHT22;1510;51.072;6.678;2023-07-13T05:08:22;15.10;74.10
3001;DHT22;1510;51.072;6.678;2023-07-13T05:10:50;15.20;73.80
3001;DHT22;1510;51.072;6.678;2023-07-13T05:13:17;15.30;73.90
3001;DHT22;1510;51.072;6.678;2023-07-13T05:15:43;15.50;74.10
3001;DHT22;1510;51.072;6.678;2023-07-13T05:18:10;15.50;72.50
3001;DHT22;1510;51.072;6.678;2023-07-13T05:20:37;15.70;68.40
3001;DHT22;1510;51.072;6.678;2023-07-13T05:23:05;15.80;66.30
3001;DHT22;1510;51.072;6.678;2023-07-13T05:25:32;16.00;66.50
3001;DHT22;1510;51.072;6.678;2023-07-13T05:27:59;16.30;66.70
3001;DHT22;1510;51.072;6.678;2023-07-13T05:30:26;16.70;66.90
3001;DHT22;1510;51.072;6.678;2023-07-13T05:32:53;16.90;59.30
3001;DHT22;1510;51.072;6.678;2023-07-13T05:35:20;17.20;59.30
3001;DHT22;1510;51.072;6.678;2023-07-13T05:37:46;17.50;58.70
3001;DHT22;1510;51.072;6.678;2023-07-13T05:40:15;17.50;57.40
3001;DHT22;1510;51.072;6.678;2023-07-13T05:42:42;17.50;55.40
3001;DHT22;1510;51.072;6.678;2023-07-13T05:45:09;17.70;54.50
3001;DHT22;1510;51.072;6.678;2023-07-13T05:47:36;17.90;54.90
3001;DHT22;1510;51.072;6.678;2023-07-13T05:50:03;18.20;51.60
3001;DHT22;1510;51.072;6.678;2023-07-13T05:52:30;18.60;51.90
3001;DHT22;1510;51.072;6.678;2023-07-13T05:54:57;18.60;51.90
3001;DHT22;1510;51.072;6.678;2023-07-13T05:57:25;18.60;51.90
3001;DHT22;1510;51.072;6.678;2023-07-13T05:59:52;18.90;52.20
3001;DHT22;1510;51.072;6.678;2023-07-13T06:02:19;18.90;52.20
3001;DHT22;1510;51.072;6.678;2023-07-13T06:04:46;18.70;52.00
3001;DHT22;1510;51.072;6.678;2023-07-13T06:07:12;18.70;52.90
3001;DHT22;1510;51.072;6.678;2023-07-13T06:09:39;18.70;52.00
3001;DHT22;1510;51.072;6.678;2023-07-13T06:12:07;18.80;53.00
3001;DHT22;1510;51.072;6.678;2023-07-13T06:14:36;19.10;52.40
3001;DHT22;1510;51.072;6.678;2023-07-13T06:17:03;19.00;47.80
3001;DHT22;1510;51.072;6.678;2023-07-13T06:19:30;19.30;48.70
3001;DHT22;1510;51.072;6.678;2023-07-13T06:21:57;19.30;47.00
3001;DHT22;1510;51.072;6.678;2023-07-13T06:24:25;19.30;45.60
3001;DHT22;1510;51.072;6.678;2023-07-13T06:26:52;19.40;46.00
3001;DHT22;1510;51.072;6.678;2023-07-13T06:29:19;19.50;43.90
3001;DHT22;1510;51.072;6.678;2023-07-13T06:31:47;19.90;45.60
3001;DHT22;1510;51.072;6.678;2023-07-13T06:34:14;19.90;44.30
3001;DHT22;1510;51.072;6.678;2023-07-13T06:36:41;20.20;41.30
3001;DHT22;1510;51.072;6.678;2023-07-13T06:39:07;20.30;39.50
3001;DHT22;1510;51.072;6.678;2023-07-13T06:41:34;20.60;39.70
3001;DHT22;1510;51.072;6.678;2023-07-13T06:44:01;21.20;36.40
3001;DHT22;1510;51.072;6.678;2023-07-13T06:46:29;21.20;36.40
3001;DHT22;1510;51.072;6.678;2023-07-13T06:48:57;21.00;36.20
3001;DHT22;1510;51.072;6.678;2023-07-13T06:51:24;20.70;35.90
3001;DHT22;1510;51.072;6.678;2023-07-13T06:53:51;20.70;36.00
3001;DHT22;1510;51.072;6.678;2023-07-13T06:56:18;20.40;35.70
3001;DHT22;1510;51.072;6.678;2023-07-13T06:58:45;20.20;35.50
3001;DHT22;1510;51.072;6.678;2023-07-13T07:01:12;19.90;38.80
3001;DHT22;1510;51.072;6.678;2023-07-13T07:03:38;19.60;41.10
3001;DHT22;1510;51.072;6.678;2023-07-13T07:06:13;19.40;43.80
3001;DHT22;1510;51.072;6.678;2023-07-13T07:08:40;19.30;43.70
3001;DHT22;1510;51.072;6.678;2023-07-13T07:11:11;19.50;43.90
3001;DHT22;1510;51.072;6.678;2023-07-13T07:13:39;19.40;43.80
3001;DHT22;1510;51.072;6.678;2023-07-13T07:16:05;19.60;44.00
3001;DHT22;1510;51.072;6.678;2023-07-13T07:18:34;19.50;43.90
3001;DHT22;1510;51.072;6.678;2023-07-13T07:21:01;19.50;43.90
3001;DHT22;1510;51.072;6.678;2023-07-13T07:23:29;19.20;43.70
3001;DHT22;1510;51.072;6.678;2023-07-13T07:25:56;19.30;43.70
3001;DHT22;1510;51.072;6.678;2023-07-13T07:28:23;19.40;44.70
3001;DHT22;1510;51.072;6.678;2023-07-13T07:30:52;19.30;43.70
3001;DHT22;1510;51.072;6.678;2023-07-13T07:33:19;19.30;43.90
3001;DHT22;1510;51.072;6.678;2023-07-13T07:35:46;19.50;43.90
3001;DHT22;1510;51.072;6.678;2023-07-13T07:38:14;19.60;44.00
3001;DHT22;1510;51.072;6.678;2023-07-13T07:40:42;19.60;44.00
3001;DHT22;1510;51.072;6.678;2023-07-13T07:43:10;19.70;44.10
3001;DHT22;1510;51.072;6.678;2023-07-13T07:45:38;19.70;44.10
3001;DHT22;1510;51.072;6.678;2023-07-13T07:48:06;20.00;44.40
3001;DHT22;1510;51.072;6.678;2023-07-13T07:50:35;20.20;44.50
3001;DHT22;1510;51.072;6.678;2023-07-13T07:53:04;20.30;41.40
3001;DHT22;1510;51.072;6.678;2023-07-13T07:55:33;20.50;40.30
3001;DHT22;1510;51.072;6.678;2023-07-13T07:58:01;20.40;39.00
3001;DHT22;1510;51.072;6.678;2023-07-13T08:00:28;20.50;40.20
3001;DHT22;1510;51.072;6.678;2023-07-13T08:02:57;20.80;36.20
3001;DHT22;1510;51.072;6.678;2023-07-13T08:05:26;20.80;36.10
3001;DHT22;1510;51.072;6.678;2023-07-13T08:07:53;20.80;36.50
3001;DHT22;1510;51.072;6.678;2023-07-13T08:10:20;20.90;36.20
3001;DHT22;1510;51.072;6.678;2023-07-13T08:12:46;20.90;36.20
3001;DHT22;1510;51.072;6.678;2023-07-13T08:15:16;20.90;36.10
3001;DHT22;1510;51.072;6.678;2023-07-13T08:17:43;21.00;36.20
3001;DHT22;1510;51.072;6.678;2023-07-13T08:20:10;21.30;37.40
3001;DHT22;1510;51.072;6.678;2023-07-13T08:22:37;21.40;36.60
3001;DHT22;1510;51.072;6.678;2023-07-13T08:25:04;21.20;36.40
3001;DHT22;1510;51.072;6.678;2023-07-13T08:27:32;21.60;36.80
3001;DHT22;1510;51.072;6.678;2023-07-13T08:29:59;21.70;34.00
3001;DHT22;1510;51.072;6.678;2023-07-13T08:32:27;21.80;32.40
3001;DHT22;1510;51.072;6.678;2023-07-13T08:34:54;21.70;36.80
3001;DHT22;1510;51.072;6.678;2023-07-13T08:37:21;22.10;35.00
3001;DHT22;1510;51.072;6.678;2023-07-13T08:39:48;22.10;30.40
3001;DHT22;1510;51.072;6.678;2023-07-13T08:42:22;22.20;34.40
3001;DHT22;1510;51.072;6.678;2023-07-13T08:45:00;21.80;28.30
3001;DHT22;1510;51.072;6.678;2023-07-13T08:47:34;22.10;31.10
3001;DHT22;1510;51.072;6.678;2023-07-13T08:50:02;21.60;28.20
3001;DHT22;1510;51.072;6.678;2023-07-13T08:52:32;21.60;28.20
3001;DHT22;1510;51.072;6.678;2023-07-13T08:55:03;21.40;32.50
3001;DHT22;1510;51.072;6.678;2023-07-13T08:57:33;21.70;31.50
3001;DHT22;1510;51.072;6.678;2023-07-13T09:00:01;21.90;29.10
3001;DHT22;1510;51.072;6.678;2023-07-13T09:02:41;22.40;28.70
3001;DHT22;1510;51.072;6.678;2023-07-13T09:05:12;22.70;28.90
3001;DHT22;1510;51.072;6.678;2023-07-13T09:07:52;23.00;26.80
3001;DHT22;1510;51.072;6.678;2023-07-13T09:10:27;23.20;25.60
3001;DHT22;1510;51.072;6.678;2023-07-13T09:13:05;23.50;22.20
3001;DHT22;1510;51.072;6.678;2023-07-13T09:15:36;24.00;22.60
3001;DHT22;1510;51.072;6.678;2023-07-13T09:18:10;24.00;22.60
3001;DHT22;1510;51.072;6.678;2023-07-13T09:20:42;23.70;22.40
3001;DHT22;1510;51.072;6.678;2023-07-13T09:23:14;24.00;22.60
3001;DHT22;1510;51.072;6.678;2023-07-13T09:25:42;23.90;18.90
3001;DHT22;1510;51.072;6.678;2023-07-13T09:28:12;24.30;19.70
3001;DHT22;1510;51.072;6.678;2023-07-13T09:30:46;24.70;15.60
3001;DHT22;1510;51.072;6.678;2023-07-13T09:33:18;24.70;17.60
3001;DHT22;1510;51.072;6.678;2023-07-13T09:35:45;25.10;15.80
3001;DHT22;1510;51.072;6.678;2023-07-13T09:38:13;25.60;16.10
3001;DHT22;1510;51.072;6.678;2023-07-13T09:40:49;25.50;12.30
3001;DHT22;1510;51.072;6.678;2023-07-13T09:43:20;25.50;16.10
3001;DHT22;1510;51.072;6.678;2023-07-13T09:45:48;25.00;15.80
3001;DHT22;1510;51.072;6.678;2023-07-13T09:48:18;24.50;11.90
3001;DHT22;1510;51.072;6.678;2023-07-13T09:50:45;24.00;15.10
3001;DHT22;1510;51.072;6.678;2023-07-13T09:53:13;24.30;15.30
3001;DHT22;1510;51.072;6.678;2023-07-13T09:55:42;24.20;15.30
3001;DHT22;1510;51.072;6.678;2023-07-13T09:58:12;24.80;15.60
3001;DHT22;1510;51.072;6.678;2023-07-13T10:00:40;25.40;12.20
3001;DHT22;1510;51.072;6.678;2023-07-13T10:03:18;25.70;12.30
3001;DHT22;1510;51.072;6.678;2023-07-13T10:05:48;26.10;8.70
3001;DHT22;1510;51.072;6.678;2023-07-13T10:08:18;26.00;4.80
3001;DHT22;1510;51.072;6.678;2023-07-13T10:10:46;25.20;8.20
3001;DHT22;1510;51.072;6.678;2023-07-13T10:13:34;24.90;7.40
3001;DHT22;1510;51.072;6.678;2023-07-13T10:16:03;24.90;8.20
3001;DHT22;1510;51.072;6.678;2023-07-13T10:18:39;25.30;8.30
3001;DHT22;1510;51.072;6.678;2023-07-13T10:21:15;25.70;9.20
3001;DHT22;1510;51.072;6.678;2023-07-13T10:23:43;26.10;8.70
3001;DHT22;1510;51.072;6.678;2023-07-13T10:26:16;26.20;5.50
3001;DHT22;1510;51.072;6.678;2023-07-13T10:28:47;26.70;5.30
3001;DHT22;1510;51.072;6.678;2023-07-13T10:31:19;26.00;8.70
3001;DHT22;1510;51.072;6.678;2023-07-13T10:33:48;26.50;3.30
3001;DHT22;1510;51.072;6.678;2023-07-13T10:36:24;26.20;1.00
3001;DHT22;1510;51.072;6.678;2023-07-13T10:38:55;26.00;1.40
3001;DHT22;1510;51.072;6.678;2023-07-13T10:41:26;26.40;1.00
3001;DHT22;1510;51.072;6.678;2023-07-13T10:43:55;26.20;1.00
3001;DHT22;1510;51.072;6.678;2023-07-13T10:46:25;26.30;1.00
3001;DHT22;1510;51.072;6.678;2023-07-13T10:48:58;26.30;3.00
3001;DHT22;1510;51.072;6.678;2023-07-13T10:51:27;25.00;3.90
3001;DHT22;1510;51.072;6.678;2023-07-13T10:54:17;24.90;7.90
3001;DHT22;1510;51.072;6.678;2023-07-13T10:56:50;25.00;8.10
3001;DHT22;1510;51.072;6.678;2023-07-13T10:59:23;24.90;8.10
3001;DHT22;1510;51.072;6.678;2023-07-13T11:01:55;25.00;8.10
3001;DHT22;1510;51.072;6.678;2023-07-13T11:04:25;25.40;8.30
3001;DHT22;1510;51.072;6.678;2023-07-13T11:06:57;25.20;3.40
3001;DHT22;1510;51.072;6.678;2023-07-13T11:09:33;24.70;3.90
3001;DHT22;1510;51.072;6.678;2023-07-13T11:12:06;25.00;8.10
3001;DHT22;1510;51.072;6.678;2023-07-13T11:14:36;25.20;1.00
3001;DHT22;1510;51.072;6.678;2023-07-13T11:17:24;24.60;1.70
3001;DHT22;1510;51.072;6.678;2023-07-13T11:19:54;24.00;7.40
3001;DHT22;1510;51.072;6.678;2023-07-13T11:22:43;23.60;7.10
3001;DHT22;1510;51.072;6.678;2023-07-13T11:25:29;24.40;6.80
3001;DHT22;1510;51.072;6.678;2023-07-13T11:28:07;24.70;6.10
3001;DHT22;1510;51.072;6.678;2023-07-13T11:30:40;24.40;6.20
3001;DHT22;1510;51.072;6.678;2023-07-13T11:33:15;23.80;7.90
3001;DHT22;1510;51.072;6.678;2023-07-13T11:35:49;23.70;7.90
3001;DHT22;1510;51.072;6.678;2023-07-13T11:38:20;23.80;7.30
3001;DHT22;1510;51.072;6.678;2023-07-13T11:40:48;23.80;7.30
3001;DHT22;1510;51.072;6.678;2023-07-13T11:43:17;23.60;7.10
3001;DHT22;1510;51.072;6.678;2023-07-13T11:45:44;24.60;7.60
3001;DHT22;1510;51.072;6.678;2023-07-13T11:48:22;25.90;1.00
3001;DHT22;1510;51.072;6.678;2023-07-13T11:50:56;26.90;1.30
3001;DHT22;1510;51.072;6.678;2023-07-13T11:53:27;28.10;1.00
3001;DHT22;1510;51.072;6.678;2023-07-13T11:55:55;27.80;1.00
3001;DHT22;1510;51.072;6.678;2023-07-13T11:58:24;27.30;1.00
3001;DHT22;1510;51.072;6.678;2023-07-13T12:00:52;26.70;1.00
3001;DHT22;1510;51.072;6.678;2023-07-13T12:03:21;27.00;1.00
3001;DHT22;1510;51.072;6.678;2023-07-13T12:05:58;27.30;1.00
3001;DHT22;1510;51.072;6.678;2023-07-13T12:08:26;27.50;1.00
3001;DHT22;1510;51.072;6.678;2023-07-13T12:11:02;28.40;1.00
3001;DHT22;1510;51.072;6.678;2023-07-13T12:13:36;29.00;1.00
3001;DHT22;1510;51.072;6.678;2023-07-13T12:16:12;29.20;1.00
3001;DHT22;1510;51.072;6.678;2023-07-13T12:18:42;30.00;1.00
3001;DHT22;1510;51.072;6.678;2023-07-13T12:21:14;29.30;1.00
3001;DHT22;1510;51.072;6.678;2023-07-13T12:23:44;28.70;1.00
3001;DHT22;1510;51.072;6.678;2023-07-13T12:26:12;28.20;1.00
3001;DHT22;1510;51.072;6.678;2023-07-13T12:28:46;27.70;1.00
3001;DHT22;1510;51.072;6.678;2023-07-13T12:31:25;27.30;1.00
3001;DHT22;1510;51.072;6.678;2023-07-13T12:33:57;27.60;1.00
3001;DHT22;1510;51.072;6.678;2023-07-13T12:36:26;28.20;1.00
3001;DHT22;1510;51.072;6.678;2023-07-13T12:38:57;28.90;1.00
3001;DHT22;1510;51.072;6.678;2023-07-13T12:41:29;28.50;1.00
3001;DHT22;1510;51.072;6.678;2023-07-13T12:43:56;29.40;1.00
3001;DHT22;1510;51.072;6.678;2023-07-13T12:46:24;30.10;1.00
3001;DHT22;1510;51.072;6.678;2023-07-13T12:48:54;31.30;1.00
3001;DHT22;1510;51.072;6.678;2023-07-13T12:51:26;29.80;1.00
3001;DHT22;1510;51.072;6.678;2023-07-13T12:54:04;29.70;1.00
3001;DHT22;1510;51.072;6.678;2023-07-13T12:56:33;28.40;1.00
3001;DHT22;1510;51.072;6.678;2023-07-13T12:59:03;28.30;1.00
3001;DHT22;1510;51.072;6.678;2023-07-13T13:01:34;28.90;1.00
3001;DHT22;1510;51.072;6.678;2023-07-13T13:04:03;29.50;1.00
3001;DHT22;1510;51.072;6.678;2023-07-13T13:06:33;29.40;1.00
3001;DHT22;1510;51.072;6.678;2023-07-13T13:09:02;30.20;1.00
3001;DHT22;1510;51.072;6.678;2023-07-13T13:11:30;29.60;1.00
3001;DHT22;1510;51.072;6.678;2023-07-13T13:13:58;29.60;1.00
3001;DHT22;1510;51.072;6.678;2023-07-13T13:16:33;29.60;1.00
3001;DHT22;1510;51.072;6.678;2023-07-13T13:19:11;29.80;1.00
3001;DHT22;1510;51.072;6.678;2023-07-13T13:21:43;29.70;1.00
3001;DHT22;1510;51.072;6.678;2023-07-13T13:24:11;30.80;1.00
3001;DHT22;1510;51.072;6.678;2023-07-13T13:26:39;30.20;1.00
3001;DHT22;1510;51.072;6.678;2023-07-13T13:29:12;29.30;1.00
3001;DHT22;1510;51.072;6.678;2023-07-13T13:31:40;29.40;1.00
3001;DHT22;1510;51.072;6.678;2023-07-13T13:34:09;29.30;1.00
3001;DHT22;1510;51.072;6.678;2023-07-13T13:36:37;29.10;1.00
3001;DHT22;1510;51.072;6.678;2023-07-13T13:39:18;29.70;1.00
3001;DHT22;1510;51.072;6.678;2023-07-13T13:41:46;30.00;1.00
3001;DHT22;1510;51.072;6.678;2023-07-13T13:44:14;29.90;1.00
3001;DHT22;1510;51.072;6.678;2023-07-13T13:46:43;30.90;1.00
3001;DHT22;1510;51.072;6.678;2023-07-13T13:49:14;30.90;1.00
3001;DHT22;1510;51.072;6.678;2023-07-13T13:51:41;30.70;1.00
3001;DHT22;1510;51.072;6.678;2023-07-13T13:54:12;30.20;1.00
3001;DHT22;1510;51.072;6.678;2023-07-13T13:56:42;30.00;1.00
3001;DHT22;1510;51.072;6.678;2023-07-13T13:59:09;30.30;1.00
3001;DHT22;1510;51.072;6.678;2023-07-13T14:01:36;30.80;1.00
3001;DHT22;1510;51.072;6.678;2023-07-13T14:04:04;31.10;1.00
3001;DHT22;1510;51.072;6.678;2023-07-13T14:06:32;31.10;1.00
3001;DHT22;1510;51.072;6.678;2023-07-13T14:08:59;30.90;1.00
3001;DHT22;1510;51.072;6.678;2023-07-13T14:11:28;31.00;1.00
3001;DHT22;1510;51.072;6.678;2023-07-13T14:13:58;30.40;1.00
3001;DHT22;1510;51.072;6.678;2023-07-13T14:16:27;29.50;1.00
3001;DHT22;1510;51.072;6.678;2023-07-13T14:18:55;28.40;1.00
3001;DHT22;1510;51.072;6.678;2023-07-13T14:21:24;27.50;1.00
3001;DHT22;1510;51.072;6.678;2023-07-13T14:23:51;26.60;1.00
3001;DHT22;1510;51.072;6.678;2023-07-13T14:26:19;26.20;1.00
3001;DHT22;1510;51.072;6.678;2023-07-13T14:28:49;26.20;1.00
3001;DHT22;1510;51.072;6.678;2023-07-13T14:31:17;26.60;1.00
3001;DHT22;1510;51.072;6.678;2023-07-13T14:33:44;26.80;1.00
3001;DHT22;1510;51.072;6.678;2023-07-13T14:36:23;27.10;1.00
3001;DHT22;1510;51.072;6.678;2023-07-13T14:38:50;26.80;1.00
3001;DHT22;1510;51.072;6.678;2023-07-13T14:41:17;26.90;1.00
3001;DHT22;1510;51.072;6.678;2023-07-13T14:43:44;26.90;1.00
3001;DHT22;1510;51.072;6.678;2023-07-13T14:46:21;26.90;1.00
3001;DHT22;1510;51.072;6.678;2023-07-13T14:48:51;26.40;1.00
3001;DHT22;1510;51.072;6.678;2023-07-13T14:51:18;26.10;1.00
3001;DHT22;1510;51.072;6.678;2023-07-13T14:53:44;25.50;1.00
3001;DHT22;1510;51.072;6.678;2023-07-13T14:56:12;24.70;1.00
3001;DHT22;1510;51.072;6.678;2023-07-13T14:58:40;24.10;1.00
3001;DHT22;1510;51.072;6.678;2023-07-13T15:01:12;23.70;1.00
3001;DHT22;1510;51.072;6.678;2023-07-13T15:03:43;23.30;1.00
3001;DHT22;1510;51.072;6.678;2023-07-13T15:06:12;23.00;1.00
3001;DHT22;1510;51.072;6.678;2023-07-13T15:08:39;22.80;1.00
3001;DHT22;1510;51.072;6.678;2023-07-13T15:11:07;22.60;1.00
3001;DHT22;1510;51.072;6.678;2023-07-13T15:13:34;22.20;1.00
3001;DHT22;1510;51.072;6.678;2023-07-13T15:16:01;21.80;2.10
3001;DHT22;1510;51.072;6.678;2023-07-13T15:18:30;21.60;5.60
3001;DHT22;1510;51.072;6.678;2023-07-13T15:20:58;21.50;5.60
3001;DHT22;1510;51.072;6.678;2023-07-13T15:23:28;21.40;5.50
3001;DHT22;1510;51.072;6.678;2023-07-13T15:25:55;21.20;7.40
3001;DHT22;1510;51.072;6.678;2023-07-13T15:28:22;21.00;9.40
3001;DHT22;1510;51.072;6.678;2023-07-13T15:30:49;21.00;12.90
3001;DHT22;1510;51.072;6.678;2023-07-13T15:33:21;20.90;12.80
3001;DHT22;1510;51.072;6.678;2023-07-13T15:35:50;20.80;12.80
3001;DHT22;1510;51.072;6.678;2023-07-13T15:38:21;20.70;15.20
3001;DHT22;1510;51.072;6.678;2023-07-13T15:40:48;20.60;16.30
3001;DHT22;1510;51.072;6.678;2023-07-13T15:43:16;20.70;18.10
3001;DHT22;1510;51.072;6.678;2023-07-13T15:45:44;20.70;16.50
3001;DHT22;1510;51.072;6.678;2023-07-13T15:48:14;20.70;16.50
3001;DHT22;1510;51.072;6.678;2023-07-13T15:50:44;20.70;20.20
3001;DHT22;1510;51.072;6.678;2023-07-13T15:53:15;20.70;20.20
3001;DHT22;1510;51.072;6.678;2023-07-13T15:55:43;20.80;20.30
3001;DHT22;1510;51.072;6.678;2023-07-13T15:58:12;20.80;15.30
3001;DHT22;1510;51.072;6.678;2023-07-13T16:00:40;20.70;12.70
3001;DHT22;1510;51.072;6.678;2023-07-13T16:03:08;20.70;13.40
3001;DHT22;1510;51.072;6.678;2023-07-13T16:05:35;20.80;12.80
3001;DHT22;1510;51.072;6.678;2023-07-13T16:08:03;20.70;12.70
3001;DHT22;1510;51.072;6.678;2023-07-13T16:10:34;20.70;12.70
3001;DHT22;1510;51.072;6.678;2023-07-13T16:13:03;20.70;12.70
3001;DHT22;1510;51.072;6.678;2023-07-13T16:15:31;20.60;12.60
3001;DHT22;1510;51.072;6.678;2023-07-13T16:17:57;20.70;12.70